CheckWX is a tool to help pilots better visualize weather data.  It is not intended as a substitute for an official pre-flight weather briefing.

07:33:53 UTC

LEAO TAF
Ciudad Real Airport
Ciudad Real, Spain
TAF LEAO 170500Z 1706/1715 VRB05KT CAVOK

Jun-17@
06:00 UTC

Jun-17 @ 06:00 UTC

Jun-17@
15:00 UTC

Jun-17 @ 15:00 UTC

TAF LEAO 170500Z 1706/1715 VRB05KT CAVOK
Wind
  • Variable at 5 KTS
Conditions
No significant weather
Cloud Levels
  • No significant clouds